Time,TemperatureF,DewpointF,PressureIn,WindDirection,WindDirectionDegrees,WindSpeedMPH,WindSpeedGustMPH,Humidity,HourlyPrecipIn,Conditions,Clouds,dailyrainin,SolarRadiationWatts/m^2,SoftwareType,DateUTC
2013-02-28 00:01:00,22.0,7.0,-100.00,NNW,337,7.0,13.0,52,0.00,,,0.00,0.000000,,2013-02-28 07:01:00,
2013-02-28 00:11:00,22.0,7.0,-100.00,NNW,337,7.0,13.0,52,0.00,,,0.00,0.000000,,2013-02-28 07:11:00,
2013-02-28 00:21:00,22.0,7.0,-100.00,NNW,337,7.0,13.0,52,0.00,,,0.00,0.000000,,2013-02-28 07:21:00,
2013-02-28 00:30:00,22.0,4.0,-100.00,NNW,346,7.0,13.0,46,0.00,,,0.00,0.000000,,2013-02-28 07:30:00,
2013-02-28 00:52:00,22.0,4.0,-100.00,NNW,346,7.0,13.0,46,0.00,,,0.00,0.000000,,2013-02-28 07:52:00,
2013-02-28 01:01:00,22.0,4.0,-100.00,NNW,346,7.0,13.0,46,0.00,,,0.00,0.000000,,2013-02-28 08:01:00,
2013-02-28 01:11:00,22.0,4.0,-100.00,NNW,346,7.0,13.0,46,0.00,,,0.00,0.000000,,2013-02-28 08:11:00,
2013-02-28 01:21:00,22.0,4.0,-100.00,NNW,346,7.0,13.0,46,0.00,,,0.00,0.000000,,2013-02-28 08:21:00,
2013-02-28 01:30:00,21.0,2.0,-100.00,SSW,197,1.0,12.0,42,0.00,,,0.00,0.000000,,2013-02-28 08:30:00,
2013-02-28 01:53:00,21.0,2.0,-100.00,SSW,197,1.0,12.0,42,0.00,,,0.00,0.000000,,2013-02-28 08:53:00,
2013-02-28 02:03:00,21.0,2.0,-100.00,SSW,197,1.0,12.0,42,0.00,,,0.00,0.000000,,2013-02-28 09:03:00,
2013-02-28 02:11:00,21.0,2.0,-100.00,SSW,197,1.0,12.0,42,0.00,,,0.00,0.000000,,2013-02-28 09:11:00,
2013-02-28 02:21:00,21.0,2.0,-100.00,SSW,197,1.0,12.0,42,0.00,,,0.00,0.000000,,2013-02-28 09:21:00,
2013-02-28 02:30:00,21.0,3.0,-100.00,NNW,337,8.0,16.0,45,0.00,,,0.00,0.000000,,2013-02-28 09:30:00,
2013-02-28 02:52:00,21.0,3.0,-100.00,NNW,337,8.0,16.0,45,0.00,,,0.00,0.000000,,2013-02-28 09:52:00,
2013-02-28 03:01:00,21.0,3.0,-100.00,NNW,337,8.0,16.0,45,0.00,,,0.00,0.000000,,2013-02-28 10:01:00,
2013-02-28 03:11:00,21.0,3.0,-100.00,NNW,337,8.0,16.0,45,0.00,,,0.00,0.000000,,2013-02-28 10:11:00,
2013-02-28 03:21:00,21.0,3.0,-100.00,NNW,337,8.0,16.0,45,0.00,,,0.00,0.000000,,2013-02-28 10:21:00,
2013-02-28 03:30:00,21.0,-1.0,-100.00,NNW,335,9.0,18.0,38,0.00,,,0.00,0.000000,,2013-02-28 10:30:00,
2013-02-28 03:52:00,21.0,-1.0,-100.00,NNW,335,9.0,18.0,38,0.00,,,0.00,0.000000,,2013-02-28 10:52:00,
2013-02-28 04:01:00,21.0,-1.0,-100.00,NNW,335,9.0,18.0,38,0.00,,,0.00,0.000000,,2013-02-28 11:01:00,
2013-02-28 04:11:00,21.0,-1.0,-100.00,NNW,335,9.0,18.0,38,0.00,,,0.00,0.000000,,2013-02-28 11:11:00,
2013-02-28 04:21:00,21.0,-1.0,-100.00,NNW,335,9.0,18.0,38,0.00,,,0.00,0.000000,,2013-02-28 11:21:00,
2013-02-28 04:30:00,21.0,-2.0,-100.00,NNW,341,11.0,22.0,36,0.00,,,0.00,0.000000,,2013-02-28 11:30:00,
2013-02-28 04:52:00,21.0,-2.0,-100.00,NNW,341,11.0,22.0,36,0.00,,,0.00,0.000000,,2013-02-28 11:52:00,
2013-02-28 05:01:00,21.0,-2.0,-100.00,NNW,341,11.0,22.0,36,0.00,,,0.00,0.000000,,2013-02-28 12:01:00,
2013-02-28 05:11:00,21.0,-2.0,-100.00,NNW,341,11.0,22.0,36,0.00,,,0.00,0.000000,,2013-02-28 12:11:00,
2013-02-28 05:21:00,21.0,-2.0,-100.00,NNW,341,11.0,22.0,36,0.00,,,0.00,0.000000,,2013-02-28 12:21:00,
2013-02-28 05:52:00,22.0,-3.0,-100.00,NNW,348,12.0,24.0,33,0.00,,,0.00,0.000000,,2013-02-28 12:52:00,
2013-02-28 06:01:00,22.0,-3.0,-100.00,NNW,348,12.0,24.0,33,0.00,,,0.00,0.000000,,2013-02-28 13:01:00,
2013-02-28 06:11:00,22.0,-3.0,-100.00,NNW,348,12.0,24.0,33,0.00,,,0.00,0.000000,,2013-02-28 13:11:00,
2013-02-28 06:30:00,20.0,-3.0,-100.00,NNW,334,4.0,18.0,36,0.00,,,0.00,0.000000,,2013-02-28 13:30:00,
2013-02-28 06:52:00,20.0,-3.0,-100.00,NNW,334,4.0,18.0,36,0.00,,,0.00,0.000000,,2013-02-28 13:52:00,
2013-02-28 07:01:00,20.0,-3.0,-100.00,NNW,334,4.0,18.0,36,0.00,,,0.00,0.000000,,2013-02-28 14:01:00,
2013-02-28 07:11:00,20.0,-3.0,-100.00,NNW,334,4.0,18.0,36,0.00,,,0.00,0.000000,,2013-02-28 14:11:00,
2013-02-28 07:21:00,20.0,-3.0,-100.00,NNW,334,4.0,18.0,36,0.00,,,0.00,0.000000,,2013-02-28 14:21:00,
2013-02-28 08:52:00,30.0,2.0,-100.00,SW,230,1.0,4.0,29,0.00,,,0.00,248.000000,,2013-02-28 15:52:00,
2013-02-28 09:01:00,30.0,2.0,-100.00,SW,230,1.0,4.0,29,0.00,,,0.00,248.000000,,2013-02-28 16:01:00,
2013-02-28 09:52:00,36.0,4.0,-100.00,WNW,302,0.0,4.0,26,-99.99,,,0.00,534.000000,,2013-02-28 16:52:00,
2013-02-28 11:30:00,39.0,7.0,-100.00,NNW,329,5.0,11.0,26,-99.99,,,0.00,862.000000,,2013-02-28 18:30:00,
2013-02-28 12:21:00,39.0,7.0,-100.00,NNW,329,5.0,11.0,26,-99.99,,,0.00,862.000000,,2013-02-28 19:21:00,
2013-02-28 12:30:00,41.0,10.0,-100.00,WNW,293,5.0,11.0,27,0.00,,,0.00,921.000000,,2013-02-28 19:30:00,
2013-02-28 12:52:00,41.0,10.0,-100.00,WNW,293,5.0,11.0,27,0.00,,,0.00,921.000000,,2013-02-28 19:52:00,
2013-02-28 13:01:00,41.0,10.0,-100.00,WNW,293,5.0,11.0,27,0.00,,,0.00,921.000000,,2013-02-28 20:01:00,
2013-02-28 13:11:00,41.0,10.0,-100.00,WNW,293,5.0,11.0,27,0.00,,,0.00,921.000000,,2013-02-28 20:11:00,
2013-02-28 13:21:00,41.0,10.0,-100.00,WNW,293,5.0,11.0,27,0.00,,,0.00,921.000000,,2013-02-28 20:21:00,
2013-02-28 13:30:00,40.0,3.0,-100.00,WNW,303,10.0,18.0,21,0.00,,,0.00,911.000000,,2013-02-28 20:30:00,
2013-02-28 13:52:00,40.0,3.0,-100.00,WNW,303,10.0,18.0,21,0.00,,,0.00,911.000000,,2013-02-28 20:52:00,
2013-02-28 14:01:00,40.0,3.0,-100.00,WNW,303,10.0,18.0,21,0.00,,,0.00,911.000000,,2013-02-28 21:01:00,
2013-02-28 14:11:00,40.0,3.0,-100.00,WNW,303,10.0,18.0,21,0.00,,,0.00,911.000000,,2013-02-28 21:11:00,
2013-02-28 14:22:00,40.0,3.0,-100.00,WNW,303,10.0,18.0,21,0.00,,,0.00,911.000000,,2013-02-28 21:22:00,
2013-02-28 14:30:00,39.0,7.0,-100.00,NW,312,10.0,23.0,26,0.00,,,0.00,817.000000,,2013-02-28 21:30:00,
2013-02-28 14:52:00,39.0,7.0,-100.00,NW,312,10.0,23.0,26,0.00,,,0.00,817.000000,,2013-02-28 21:52:00,
2013-02-28 15:01:00,39.0,7.0,-100.00,NW,312,10.0,23.0,26,0.00,,,0.00,817.000000,,2013-02-28 22:01:00,
2013-02-28 15:11:00,39.0,7.0,-100.00,NW,312,10.0,23.0,26,0.00,,,0.00,817.000000,,2013-02-28 22:11:00,
2013-02-28 15:21:00,39.0,7.0,-100.00,NW,312,10.0,23.0,26,0.00,,,0.00,817.000000,,2013-02-28 22:21:00,
2013-02-28 15:30:00,38.0,9.0,-100.00,NW,306,11.0,23.0,30,0.00,,,0.00,658.000000,,2013-02-28 22:30:00,
2013-02-28 15:52:00,38.0,9.0,-100.00,NW,306,11.0,23.0,30,0.00,,,0.00,658.000000,,2013-02-28 22:52:00,
2013-02-28 16:01:00,38.0,9.0,-100.00,NW,306,11.0,23.0,30,0.00,,,0.00,658.000000,,2013-02-28 23:01:00,
2013-02-28 16:11:00,38.0,9.0,-100.00,NW,306,11.0,23.0,30,0.00,,,0.00,658.000000,,2013-02-28 23:11:00,
2013-02-28 16:21:00,38.0,9.0,-100.00,NW,306,11.0,23.0,30,0.00,,,0.00,658.000000,,2013-02-28 23:21:00,
2013-02-28 16:30:00,37.0,11.0,-100.00,NW,315,10.0,26.0,33,0.00,,,0.00,451.000000,,2013-02-28 23:30:00,
2013-02-28 16:53:00,37.0,11.0,-100.00,NW,315,10.0,26.0,33,0.00,,,0.00,451.000000,,2013-02-28 23:53:00,
2013-02-28 17:01:00,37.0,11.0,-100.00,NW,315,10.0,26.0,33,0.00,,,0.00,451.000000,,2013-03-01 00:01:00,
2013-02-28 17:11:00,37.0,11.0,-100.00,NW,315,10.0,26.0,33,0.00,,,0.00,451.000000,,2013-03-01 00:11:00,
2013-02-28 17:22:00,37.0,11.0,-100.00,NW,315,10.0,26.0,33,0.00,,,0.00,451.000000,,2013-03-01 00:22:00,
2013-02-28 17:30:00,34.0,11.0,-100.00,NW,322,13.0,26.0,38,0.00,,,0.00,136.000000,,2013-03-01 00:30:00,
2013-02-28 17:52:00,34.0,11.0,-100.00,NW,322,13.0,26.0,38,0.00,,,0.00,136.000000,,2013-03-01 00:52:00,
2013-02-28 18:01:00,34.0,11.0,-100.00,NW,322,13.0,26.0,38,0.00,,,0.00,136.000000,,2013-03-01 01:01:00,
2013-02-28 18:11:00,34.0,11.0,-100.00,NW,322,13.0,26.0,38,0.00,,,0.00,136.000000,,2013-03-01 01:11:00,
2013-02-28 18:21:00,34.0,11.0,-100.00,NW,322,13.0,26.0,38,0.00,,,0.00,136.000000,,2013-03-01 01:21:00,
2013-02-28 18:30:00,31.0,12.0,-100.00,NNW,331,11.0,23.0,45,0.00,,,0.00,14.000000,,2013-03-01 01:30:00,
2013-02-28 18:52:00,31.0,12.0,-100.00,NNW,331,11.0,23.0,45,0.00,,,0.00,14.000000,,2013-03-01 01:52:00,
2013-02-28 19:01:00,31.0,12.0,-100.00,NNW,331,11.0,23.0,45,0.00,,,0.00,14.000000,,2013-03-01 02:01:00,
2013-02-28 19:11:00,31.0,12.0,-100.00,NNW,331,11.0,23.0,45,0.00,,,0.00,14.000000,,2013-03-01 02:11:00,
2013-02-28 19:21:00,31.0,12.0,-100.00,NNW,331,11.0,23.0,45,0.00,,,0.00,14.000000,,2013-03-01 02:21:00,
2013-02-28 19:30:00,30.0,12.0,-100.00,NNW,334,11.0,25.0,46,0.00,,,0.00,0.000000,,2013-03-01 02:30:00,
2013-02-28 19:52:00,30.0,12.0,-100.00,NNW,334,11.0,25.0,46,0.00,,,0.00,0.000000,,2013-03-01 02:52:00,
2013-02-28 20:01:00,30.0,12.0,-100.00,NNW,334,11.0,25.0,46,0.00,,,0.00,0.000000,,2013-03-01 03:01:00,
2013-02-28 20:11:00,30.0,12.0,-100.00,NNW,334,11.0,25.0,46,0.00,,,0.00,0.000000,,2013-03-01 03:11:00,
2013-02-28 20:21:00,30.0,12.0,-100.00,NNW,334,11.0,25.0,46,0.00,,,0.00,0.000000,,2013-03-01 03:21:00,
2013-02-28 20:30:00,29.0,11.0,-100.00,NNW,335,12.0,28.0,47,0.00,,,0.00,0.000000,,2013-03-01 03:30:00,
2013-02-28 20:52:00,29.0,11.0,-100.00,NNW,335,12.0,28.0,47,0.00,,,0.00,0.000000,,2013-03-01 03:52:00,
2013-02-28 21:01:00,29.0,11.0,-100.00,NNW,335,12.0,28.0,47,0.00,,,0.00,0.000000,,2013-03-01 04:01:00,
2013-02-28 21:11:00,29.0,11.0,-100.00,NNW,335,12.0,28.0,47,0.00,,,0.00,0.000000,,2013-03-01 04:11:00,
2013-02-28 21:21:00,29.0,11.0,-100.00,NNW,335,12.0,28.0,47,0.00,,,0.00,0.000000,,2013-03-01 04:21:00,
2013-02-28 21:30:00,29.0,10.0,-100.00,NNW,341,11.0,20.0,44,0.00,,,0.00,0.000000,,2013-03-01 04:30:00,
2013-02-28 21:52:00,29.0,10.0,-100.00,NNW,341,11.0,20.0,44,0.00,,,0.00,0.000000,,2013-03-01 04:52:00,
2013-02-28 22:02:00,29.0,10.0,-100.00,NNW,341,11.0,20.0,44,0.00,,,0.00,0.000000,,2013-03-01 05:02:00,
2013-02-28 22:11:00,29.0,10.0,-100.00,NNW,341,11.0,20.0,44,0.00,,,0.00,0.000000,,2013-03-01 05:11:00,
2013-02-28 22:22:00,29.0,10.0,-100.00,NNW,341,11.0,20.0,44,0.00,,,0.00,0.000000,,2013-03-01 05:22:00,
2013-02-28 22:30:00,28.0,9.0,-100.00,NNW,343,11.0,25.0,45,0.00,,,0.00,0.000000,,2013-03-01 05:30:00,
2013-02-28 22:52:00,28.0,9.0,-100.00,NNW,343,11.0,25.0,45,0.00,,,0.00,0.000000,,2013-03-01 05:52:00,
2013-02-28 23:02:00,28.0,9.0,-100.00,NNW,343,11.0,25.0,45,0.00,,,0.00,0.000000,,2013-03-01 06:02:00,
2013-02-28 23:11:00,28.0,9.0,-100.00,NNW,343,11.0,25.0,45,0.00,,,0.00,0.000000,,2013-03-01 06:11:00,
2013-02-28 23:21:00,28.0,9.0,-100.00,NNW,343,11.0,25.0,45,0.00,,,0.00,0.000000,,2013-03-01 06:21:00,
2013-02-28 23:30:00,28.0,9.0,-100.00,NNW,347,14.0,23.0,45,0.00,,,0.00,0.000000,,2013-03-01 06:30:00,
2013-02-28 23:52:00,28.0,9.0,-100.00,NNW,347,14.0,23.0,45,0.00,,,0.00,0.000000,,2013-03-01 06:52:00,